VOML/IXE METAR and TAF weather

Enter ICAO airport designator
Station Type Date Time Source
VOML METAR 2019/05/26 23:30 UTC NOAA

VOML 262330Z 00000KT 6000 FEW015 28/24 Q1006 NOSIG


Station Type Date Time Source
VOML Decoded METAR 2019/05/26 23:30 UTC NOAA

Mangalore / Bajpe, India (VOML) 12-55N 074-53E 102M
May 26, 2019 - 07:30 PM EDT / 2019.05.26 2330 UTC
Wind: Calm:0
Visibility: 3 mile(s):0
Sky conditions: mostly clear
Temperature: 82 F (28 C)
Dew Point: 75 F (24 C)
Relative Humidity: 78%
Pressure (altimeter): 29.71 in. Hg (1006 hPa)
ob: VOML 262330Z 00000KT 6000 FEW015 28/24 Q1006 NOSIG
cycle: 23

Station Type Date Time Source
VOML TAF 2019/05/26 18:00 UTC NOAA

TAF VOML 261700Z 2618/2724 VRB02KT 6000 SCT015
TEMPO 2618/2621 SCT015 FEW025CB
BECMG 2704/2705 27010KT
TEMPO 2709/2715 3000 TSRA RA SCT015 SCT020 FEW025CB
BECMG 2722/2723 VRB02KT

Example: see airport list